Time,TemperatureF,DewpointF,PressureIn,WindDirection,WindDirectionDegrees,WindSpeedMPH,WindSpeedGustMPH,Humidity,HourlyPrecipIn,Conditions,Clouds,dailyrainin,SoftwareType,DateUTC
2013-12-07 00:04:00,22.7,19.7,30.54,NE,46,0.0,0.0,88,0.00,,---,0.16,VWS V13.01,2013-12-07 06:04:00,
2013-12-07 00:09:00,22.7,19.7,30.55,NE,45,0.0,0.0,88,0.00,,---,0.00,VWS V13.01,2013-12-07 06:09:00,
2013-12-07 00:14:00,22.6,19.6,30.55,NE,46,0.0,0.0,88,0.00,,---,0.00,VWS V13.01,2013-12-07 06:14:00,
2013-12-07 00:19:00,22.5,19.5,30.55,NE,45,0.0,0.0,88,0.00,,---,0.00,VWS V13.01,2013-12-07 06:19:00,
2013-12-07 00:24:00,22.4,19.4,30.55,NE,45,0.0,0.0,88,0.00,,---,0.00,VWS V13.01,2013-12-07 06:24:00,
2013-12-07 00:29:00,22.4,19.4,30.55,NE,45,0.0,0.0,88,0.00,,---,0.00,VWS V13.01,2013-12-07 06:29:00,
2013-12-07 00:35:00,22.2,19.2,30.55,NE,45,0.0,0.0,88,0.00,,---,0.00,VWS V13.01,2013-12-07 06:35:00,
2013-12-07 00:40:00,22.2,19.2,30.55,NE,46,0.0,0.0,88,0.00,,---,0.00,VWS V13.01,2013-12-07 06:40:00,
2013-12-07 00:45:00,22.1,18.8,30.56,NE,45,0.0,0.0,87,0.00,,---,0.00,VWS V13.01,2013-12-07 06:45:00,
2013-12-07 00:50:00,22.1,18.8,30.56,NE,46,0.0,0.0,87,0.00,,---,0.00,VWS V13.01,2013-12-07 06:50:00,
2013-12-07 00:55:00,22.0,18.7,30.55,NE,46,0.0,0.0,87,0.00,,---,0.00,VWS V13.01,2013-12-07 06:55:00,
2013-12-07 01:00:00,22.0,18.7,30.56,NE,46,0.0,0.0,87,0.00,,---,0.00,VWS V13.01,2013-12-07 07:00:00,
2013-12-07 01:05:00,21.9,18.6,30.56,NE,46,0.0,0.0,87,0.00,,---,0.00,VWS V13.01,2013-12-07 07:05:00,
2013-12-07 01:10:00,21.8,18.5,30.55,NE,46,0.0,0.0,87,0.00,,---,0.00,VWS V13.01,2013-12-07 07:10:00,
2013-12-07 01:15:00,21.7,18.4,30.55,NE,45,0.0,0.0,87,0.00,,---,0.00,VWS V13.01,2013-12-07 07:15:00,
2013-12-07 01:21:00,21.5,18.2,30.55,NE,45,0.0,0.0,87,0.00,,---,0.00,VWS V13.01,2013-12-07 07:21:00,
2013-12-07 01:26:00,21.5,18.2,30.56,NE,46,0.0,0.0,87,0.00,,---,0.00,VWS V13.01,2013-12-07 07:26:00,
2013-12-07 01:31:00,21.4,18.1,30.56,NE,46,0.0,0.0,87,0.00,,---,0.00,VWS V13.01,2013-12-07 07:31:00,
2013-12-07 01:36:00,21.3,18.0,30.56,NE,46,0.0,0.0,87,0.00,,---,0.00,VWS V13.01,2013-12-07 07:36:00,
2013-12-07 01:41:00,21.3,18.0,30.56,NE,46,0.0,0.0,87,0.00,,---,0.00,VWS V13.01,2013-12-07 07:41:00,
2013-12-07 01:46:00,21.2,17.9,30.56,NE,45,0.0,0.0,87,0.00,,---,0.00,VWS V13.01,2013-12-07 07:46:00,
2013-12-07 01:51:00,21.1,17.8,30.56,NE,45,0.0,0.0,87,0.00,,---,0.00,VWS V13.01,2013-12-07 07:51:00,
2013-12-07 01:56:00,21.1,17.8,30.57,NE,45,0.0,0.0,87,0.00,,---,0.00,VWS V13.01,2013-12-07 07:56:00,
2013-12-07 02:01:00,21.0,17.8,30.57,NE,46,0.0,0.0,87,0.00,,---,0.00,VWS V13.01,2013-12-07 08:01:00,
2013-12-07 02:06:00,20.9,17.6,30.57,NE,46,0.0,0.0,87,0.00,,---,0.00,VWS V13.01,2013-12-07 08:06:00,
2013-12-07 02:12:00,20.9,17.6,30.57,NE,46,0.0,0.0,87,0.00,,---,0.00,VWS V13.01,2013-12-07 08:12:00,
2013-12-07 02:17:00,20.9,17.6,30.57,NE,46,0.0,0.0,87,0.00,,---,0.00,VWS V13.01,2013-12-07 08:17:00,
2013-12-07 02:22:00,20.9,17.6,30.57,NE,45,0.0,0.0,87,0.00,,---,0.00,VWS V13.01,2013-12-07 08:22:00,
2013-12-07 02:27:00,20.9,17.6,30.57,NE,45,0.0,0.0,87,0.00,,---,0.00,VWS V13.01,2013-12-07 08:27:00,
2013-12-07 02:32:00,20.9,17.6,30.57,NE,45,0.0,0.0,87,0.00,,---,0.00,VWS V13.01,2013-12-07 08:32:00,
2013-12-07 02:37:00,20.9,17.6,30.57,NE,45,0.0,0.0,87,0.00,,---,0.00,VWS V13.01,2013-12-07 08:37:00,
2013-12-07 02:42:00,21.0,17.8,30.57,NE,45,0.0,0.0,87,0.00,,---,0.00,VWS V13.01,2013-12-07 08:42:00,
2013-12-07 02:47:00,21.0,17.8,30.57,NE,46,0.0,0.0,87,0.00,,---,0.00,VWS V13.01,2013-12-07 08:47:00,
2013-12-07 02:52:00,21.0,17.8,30.57,NE,46,0.0,0.0,87,0.00,,---,0.00,VWS V13.01,2013-12-07 08:52:00,
2013-12-07 02:57:00,21.0,17.8,30.57,NE,46,0.0,0.0,87,0.00,,---,0.00,VWS V13.01,2013-12-07 08:57:00,
2013-12-07 03:03:00,21.0,17.8,30.57,NE,45,0.0,0.0,87,0.00,,---,0.00,VWS V13.01,2013-12-07 09:03:00,
2013-12-07 03:08:00,20.9,17.6,30.57,NE,45,0.0,0.0,87,0.00,,---,0.00,VWS V13.01,2013-12-07 09:08:00,
2013-12-07 03:13:00,20.9,17.6,30.58,NE,45,0.0,0.0,87,0.00,,---,0.00,VWS V13.01,2013-12-07 09:13:00,
2013-12-07 03:18:00,20.9,17.6,30.58,NE,46,0.0,0.0,87,0.00,,---,0.00,VWS V13.01,2013-12-07 09:18:00,
2013-12-07 03:23:00,20.9,17.4,30.58,NE,46,0.0,0.0,86,0.00,,---,0.00,VWS V13.01,2013-12-07 09:23:00,
2013-12-07 03:28:00,20.8,17.3,30.58,NE,46,0.0,0.0,86,0.00,,---,0.00,VWS V13.01,2013-12-07 09:28:00,
2013-12-07 03:33:00,20.8,17.3,30.58,NE,46,0.0,0.0,86,0.00,,---,0.00,VWS V13.01,2013-12-07 09:33:00,
2013-12-07 03:38:00,20.7,17.2,30.59,NE,45,0.0,0.0,86,0.00,,---,0.00,VWS V13.01,2013-12-07 09:38:00,
2013-12-07 03:43:00,20.7,17.2,30.58,NE,46,0.0,0.0,86,0.00,,---,0.00,VWS V13.01,2013-12-07 09:43:00,
2013-12-07 03:48:00,20.6,17.1,30.59,NE,46,0.0,0.0,86,0.00,,---,0.00,VWS V13.01,2013-12-07 09:48:00,
2013-12-07 03:54:00,20.6,17.1,30.59,NE,46,0.0,0.0,86,0.00,,---,0.00,VWS V13.01,2013-12-07 09:54:00,
2013-12-07 03:59:00,20.6,17.1,30.59,NE,46,0.0,0.0,86,0.00,,---,0.00,VWS V13.01,2013-12-07 09:59:00,
2013-12-07 04:04:00,20.6,17.1,30.59,NE,46,0.0,0.0,86,0.00,,---,0.00,VWS V13.01,2013-12-07 10:04:00,
2013-12-07 04:09:00,20.6,17.1,30.59,NE,45,0.0,0.0,86,0.00,,---,0.00,VWS V13.01,2013-12-07 10:09:00,
2013-12-07 04:14:00,20.6,17.1,30.59,NE,46,0.0,0.0,86,0.00,,---,0.00,VWS V13.01,2013-12-07 10:14:00,
2013-12-07 04:19:00,20.6,17.1,30.59,NE,46,0.0,0.0,86,0.00,,---,0.00,VWS V13.01,2013-12-07 10:19:00,
2013-12-07 04:24:00,20.6,16.8,30.58,NE,46,0.0,0.0,85,0.00,,---,0.00,VWS V13.01,2013-12-07 10:24:00,
2013-12-07 04:29:00,20.5,16.7,30.58,NE,46,0.0,0.0,85,0.00,,---,0.00,VWS V13.01,2013-12-07 10:29:00,
2013-12-07 04:34:00,20.4,16.6,30.58,NE,46,0.0,0.0,85,0.00,,---,0.00,VWS V13.01,2013-12-07 10:34:00,
2013-12-07 04:39:00,20.3,16.5,30.58,NE,45,0.0,0.0,85,0.00,,---,0.00,VWS V13.01,2013-12-07 10:39:00,
2013-12-07 04:45:00,20.2,16.1,30.58,NE,45,0.0,0.0,84,0.00,,---,0.00,VWS V13.01,2013-12-07 10:45:00,
2013-12-07 04:50:00,20.0,15.9,30.58,NE,45,0.0,0.0,84,0.00,,---,0.00,VWS V13.01,2013-12-07 10:50:00,
2013-12-07 04:55:00,19.9,15.9,30.58,NE,46,0.0,0.0,84,0.00,,---,0.00,VWS V13.01,2013-12-07 10:55:00,
2013-12-07 05:00:00,19.7,15.4,30.58,NE,46,0.0,0.0,83,0.00,,---,0.00,VWS V13.01,2013-12-07 11:00:00,
2013-12-07 05:05:00,19.7,15.4,30.58,NE,46,0.0,0.0,83,0.00,,---,0.00,VWS V13.01,2013-12-07 11:05:00,
2013-12-07 05:10:00,19.5,15.2,30.58,NE,46,0.0,0.0,83,0.00,,---,0.00,VWS V13.01,2013-12-07 11:10:00,
2013-12-07 05:15:00,19.3,15.0,30.59,NE,46,0.0,0.0,83,0.00,,---,0.00,VWS V13.01,2013-12-07 11:15:00,
2013-12-07 05:20:00,19.2,14.9,30.59,NE,45,0.0,0.0,83,0.00,,---,0.00,VWS V13.01,2013-12-07 11:20:00,
2013-12-07 05:25:00,19.1,14.8,30.59,NE,45,0.0,0.0,83,0.00,,---,0.00,VWS V13.01,2013-12-07 11:25:00,
2013-12-07 05:30:00,18.9,14.3,30.60,NE,45,0.0,0.0,82,0.00,,---,0.00,VWS V13.01,2013-12-07 11:30:00,
2013-12-07 05:36:00,18.7,14.1,30.59,NE,46,0.0,0.0,82,0.00,,---,0.00,VWS V13.01,2013-12-07 11:36:00,
2013-12-07 05:41:00,18.5,13.9,30.59,NE,46,0.0,0.0,82,0.00,,---,0.00,VWS V13.01,2013-12-07 11:41:00,
2013-12-07 05:46:00,18.3,13.7,30.59,NE,46,0.0,0.0,82,0.00,,---,0.00,VWS V13.01,2013-12-07 11:46:00,
2013-12-07 05:51:00,18.1,13.5,30.60,NE,45,0.0,0.0,82,0.00,,---,0.00,VWS V13.01,2013-12-07 11:51:00,
2013-12-07 05:56:00,17.9,13.4,30.60,NE,45,0.0,0.0,82,0.00,,---,0.00,VWS V13.01,2013-12-07 11:56:00,
2013-12-07 06:01:00,17.7,13.1,30.60,NE,46,0.0,0.0,82,0.00,,---,0.00,VWS V13.01,2013-12-07 12:01:00,
2013-12-07 06:06:00,17.6,13.1,30.60,NE,46,0.0,0.0,82,0.00,,---,0.00,VWS V13.01,2013-12-07 12:06:00,
2013-12-07 06:11:00,17.4,12.9,30.61,NE,45,0.0,0.0,82,0.00,,---,0.00,VWS V13.01,2013-12-07 12:11:00,
2013-12-07 06:16:00,17.3,13.0,30.61,NE,46,0.0,0.0,83,0.00,,---,0.00,VWS V13.01,2013-12-07 12:16:00,
2013-12-07 06:21:00,17.2,12.9,30.61,NE,46,0.0,0.0,83,0.00,,---,0.00,VWS V13.01,2013-12-07 12:21:00,
2013-12-07 06:26:00,17.1,12.8,30.62,NE,46,0.0,0.0,83,0.00,,---,0.00,VWS V13.01,2013-12-07 12:26:00,
2013-12-07 06:32:00,17.0,12.7,30.62,NE,46,0.0,0.0,83,0.00,,---,0.00,VWS V13.01,2013-12-07 12:32:00,
2013-12-07 06:37:00,16.9,12.6,30.62,NE,45,0.0,0.0,83,0.00,,---,0.00,VWS V13.01,2013-12-07 12:37:00,
2013-12-07 06:42:00,16.8,12.5,30.61,NE,45,0.0,0.0,83,0.00,,---,0.00,VWS V13.01,2013-12-07 12:42:00,
2013-12-07 06:47:00,16.7,12.4,30.62,NE,46,0.0,0.0,83,0.00,,---,0.00,VWS V13.01,2013-12-07 12:47:00,
2013-12-07 06:52:00,16.6,12.4,30.63,NE,46,0.0,0.0,83,0.00,,---,0.00,VWS V13.01,2013-12-07 12:52:00,
2013-12-07 06:57:00,16.4,12.1,30.62,NE,46,0.0,0.0,83,0.00,,---,0.00,VWS V13.01,2013-12-07 12:57:00,
2013-12-07 07:02:00,16.3,12.1,30.63,NE,45,0.0,0.0,83,0.00,,---,0.00,VWS V13.01,2013-12-07 13:02:00,
2013-12-07 07:07:00,16.3,12.1,30.63,NE,45,0.0,0.0,83,0.00,,---,0.00,VWS V13.01,2013-12-07 13:07:00,
2013-12-07 07:12:00,16.2,12.0,30.64,NE,46,0.0,0.0,83,0.00,,---,0.00,VWS V13.01,2013-12-07 13:12:00,
2013-12-07 07:17:00,16.2,12.0,30.64,NE,46,0.0,0.0,83,0.00,,---,0.00,VWS V13.01,2013-12-07 13:17:00,
2013-12-07 07:23:00,16.1,11.9,30.64,NE,46,0.0,0.0,83,0.00,,---,0.00,VWS V13.01,2013-12-07 13:23:00,
2013-12-07 07:28:00,16.1,11.9,30.65,NE,46,0.0,0.0,83,0.00,,---,0.00,VWS V13.01,2013-12-07 13:28:00,
2013-12-07 07:33:00,16.1,11.9,30.65,NE,46,0.0,0.0,83,0.00,,---,0.00,VWS V13.01,2013-12-07 13:33:00,
2013-12-07 07:38:00,16.1,11.9,30.65,NE,46,0.0,0.0,83,0.00,,---,0.00,VWS V13.01,2013-12-07 13:38:00,
2013-12-07 07:43:00,16.1,11.9,30.65,NE,46,0.0,0.0,83,0.00,,---,0.00,VWS V13.01,2013-12-07 13:43:00,
2013-12-07 07:48:00,16.1,11.9,30.65,NE,45,0.0,0.0,83,0.00,,---,0.00,VWS V13.01,2013-12-07 13:48:00,
2013-12-07 07:53:00,16.2,12.0,30.65,NE,45,0.0,0.0,83,0.00,,---,0.00,VWS V13.01,2013-12-07 13:53:00,
2013-12-07 07:58:00,16.2,12.0,30.65,NE,45,0.0,0.0,83,0.00,,---,0.00,VWS V13.01,2013-12-07 13:58:00,
2013-12-07 08:03:00,16.3,12.1,30.65,NE,45,0.0,0.0,83,0.00,,---,0.00,VWS V13.01,2013-12-07 14:03:00,
2013-12-07 08:08:00,16.3,12.1,30.66,NE,46,0.0,0.0,83,0.00,,---,0.00,VWS V13.01,2013-12-07 14:08:00,
2013-12-07 08:14:00,16.4,12.1,30.66,NE,46,0.0,0.0,83,0.00,,---,0.00,VWS V13.01,2013-12-07 14:14:00,
2013-12-07 08:19:00,16.5,12.2,30.66,NE,46,0.0,0.0,83,0.00,,---,0.00,VWS V13.01,2013-12-07 14:19:00,
2013-12-07 08:24:00,16.6,12.4,30.66,NE,45,0.0,0.0,83,0.00,,---,0.00,VWS V13.01,2013-12-07 14:24:00,
2013-12-07 08:29:00,16.7,12.4,30.66,NE,45,0.0,0.0,83,0.00,,---,0.00,VWS V13.01,2013-12-07 14:29:00,
2013-12-07 08:34:00,16.8,12.5,30.66,NE,45,0.0,0.0,83,0.00,,---,0.00,VWS V13.01,2013-12-07 14:34:00,
2013-12-07 08:39:00,16.8,12.5,30.66,NE,45,0.0,0.0,83,0.00,,---,0.00,VWS V13.01,2013-12-07 14:39:00,
2013-12-07 08:44:00,17.0,12.7,30.66,NE,46,0.0,0.0,83,0.00,,---,0.00,VWS V13.01,2013-12-07 14:44:00,
2013-12-07 08:49:00,17.1,12.8,30.66,NE,46,0.0,0.0,83,0.00,,---,0.00,VWS V13.01,2013-12-07 14:49:00,
2013-12-07 08:54:00,17.2,12.9,30.66,NE,46,0.0,0.0,83,0.00,,---,0.00,VWS V13.01,2013-12-07 14:54:00,
2013-12-07 08:59:00,17.3,13.0,30.66,NE,45,0.0,0.0,83,0.00,,---,0.00,VWS V13.01,2013-12-07 14:59:00,
2013-12-07 09:04:00,17.5,13.2,30.66,NE,46,0.0,0.0,83,0.00,,---,0.00,VWS V13.01,2013-12-07 15:04:00,
2013-12-07 09:10:00,17.5,13.2,30.66,NE,45,0.0,0.0,83,0.00,,---,0.00,VWS V13.01,2013-12-07 15:10:00,
2013-12-07 09:15:00,17.6,13.3,30.66,NE,45,0.0,0.0,83,0.00,,---,0.00,VWS V13.01,2013-12-07 15:15:00,
2013-12-07 09:20:00,17.6,13.1,30.67,NE,46,0.0,0.0,82,0.00,,---,0.00,VWS V13.01,2013-12-07 15:20:00,
2013-12-07 09:25:00,17.5,12.9,30.66,NE,46,0.0,0.0,82,0.00,,---,0.00,VWS V13.01,2013-12-07 15:25:00,
2013-12-07 09:30:00,17.5,12.9,30.66,NE,46,0.0,0.0,82,0.00,,---,0.00,VWS V13.01,2013-12-07 15:30:00,
2013-12-07 09:35:00,17.5,12.9,30.66,NE,46,0.0,0.0,82,0.00,,---,0.00,VWS V13.01,2013-12-07 15:35:00,
2013-12-07 09:40:00,17.6,13.1,30.66,NE,46,0.0,0.0,82,0.00,,---,0.00,VWS V13.01,2013-12-07 15:40:00,
2013-12-07 09:45:00,17.8,13.2,30.67,NE,46,0.0,0.0,82,0.00,,---,0.00,VWS V13.01,2013-12-07 15:45:00,
2013-12-07 09:50:00,18.0,13.4,30.67,NE,46,0.0,0.0,82,0.00,,---,0.00,VWS V13.01,2013-12-07 15:50:00,
2013-12-07 09:55:00,18.2,13.6,30.67,NE,46,0.0,0.0,82,0.00,,---,0.00,VWS V13.01,2013-12-07 15:55:00,
2013-12-07 10:00:00,18.6,14.0,30.67,NE,46,0.0,0.0,82,0.00,,---,0.00,VWS V13.01,2013-12-07 16:00:00,
2013-12-07 10:06:00,18.8,14.5,30.67,NE,46,0.0,0.0,83,0.00,,---,0.00,VWS V13.01,2013-12-07 16:06:00,
2013-12-07 10:11:00,19.2,14.9,30.66,NE,46,0.0,0.0,83,0.00,,---,0.00,VWS V13.01,2013-12-07 16:11:00,
2013-12-07 10:16:00,19.4,14.8,30.66,NE,45,0.0,0.0,82,0.00,,---,0.00,VWS V13.01,2013-12-07 16:16:00,
2013-12-07 10:21:00,19.5,14.9,30.66,NE,45,0.0,0.0,82,0.00,,---,0.00,VWS V13.01,2013-12-07 16:21:00,
2013-12-07 10:26:00,19.6,15.0,30.65,NE,45,0.0,0.0,82,0.00,,---,0.00,VWS V13.01,2013-12-07 16:26:00,
2013-12-07 10:31:00,19.7,15.1,30.65,NE,46,0.0,0.0,82,0.00,,---,0.00,VWS V13.01,2013-12-07 16:31:00,
2013-12-07 10:36:00,19.7,14.8,30.65,NE,46,0.0,0.0,81,0.00,,---,0.00,VWS V13.01,2013-12-07 16:36:00,
2013-12-07 10:41:00,19.9,15.3,30.65,NE,46,0.0,0.0,82,0.00,,---,0.00,VWS V13.01,2013-12-07 16:41:00,
2013-12-07 10:46:00,20.2,15.6,30.65,NE,46,0.0,0.0,82,0.00,,---,0.00,VWS V13.01,2013-12-07 16:46:00,
2013-12-07 10:52:00,20.4,15.8,30.65,NE,45,0.0,0.0,82,0.00,,---,0.00,VWS V13.01,2013-12-07 16:52:00,
2013-12-07 10:57:00,20.6,16.0,30.65,NE,45,0.0,0.0,82,0.00,,---,0.00,VWS V13.01,2013-12-07 16:57:00,
2013-12-07 11:02:00,21.0,16.4,30.64,NE,45,0.0,0.0,82,0.00,,---,0.00,VWS V13.01,2013-12-07 17:02:00,
2013-12-07 11:07:00,21.3,16.7,30.64,NE,45,0.0,0.0,82,0.00,,---,0.00,VWS V13.01,2013-12-07 17:07:00,
2013-12-07 11:12:00,21.6,16.7,30.64,NE,45,0.0,0.0,81,0.00,,---,0.00,VWS V13.01,2013-12-07 17:12:00,
2013-12-07 11:17:00,21.8,16.9,30.64,NE,46,0.0,0.0,81,0.00,,---,0.00,VWS V13.01,2013-12-07 17:17:00,
2013-12-07 11:22:00,22.2,17.3,30.64,NE,46,0.0,0.0,81,0.00,,---,0.00,VWS V13.01,2013-12-07 17:22:00,
2013-12-07 11:27:00,22.6,17.7,30.63,NE,46,0.0,0.0,81,0.00,,---,0.00,VWS V13.01,2013-12-07 17:27:00,
2013-12-07 11:32:00,22.8,17.6,30.62,NE,46,0.0,0.0,80,0.00,,---,0.00,VWS V13.01,2013-12-07 17:32:00,
2013-12-07 11:37:00,23.0,17.8,30.62,NE,46,0.0,0.0,80,0.00,,---,0.00,VWS V13.01,2013-12-07 17:37:00,
2013-12-07 11:43:00,23.2,18.0,30.62,NE,46,0.0,0.0,80,0.00,,---,0.00,VWS V13.01,2013-12-07 17:43:00,
2013-12-07 11:48:00,23.4,18.1,30.62,NE,46,0.0,0.0,80,0.00,,---,0.00,VWS V13.01,2013-12-07 17:48:00,
2013-12-07 11:53:00,23.7,18.5,30.62,NE,46,0.0,0.0,80,0.00,,---,0.00,VWS V13.01,2013-12-07 17:53:00,
2013-12-07 11:58:00,23.9,18.4,30.60,NE,46,0.0,0.0,79,0.00,,---,0.00,VWS V13.01,2013-12-07 17:58:00,
2013-12-07 12:03:00,24.0,18.5,30.60,NE,46,0.0,0.0,79,0.00,,---,0.00,VWS V13.01,2013-12-07 18:03:00,
2013-12-07 12:08:00,24.2,18.6,30.60,NE,46,0.0,0.0,79,0.00,,---,0.00,VWS V13.01,2013-12-07 18:08:00,
2013-12-07 12:13:00,24.3,18.4,30.60,NE,46,0.0,0.0,78,0.00,,---,0.00,VWS V13.01,2013-12-07 18:13:00,
2013-12-07 12:18:00,24.2,18.3,30.59,NE,46,0.0,0.0,78,0.00,,---,0.00,VWS V13.01,2013-12-07 18:18:00,
2013-12-07 12:23:00,24.2,18.3,30.59,NE,46,0.0,0.0,78,0.00,,---,0.00,VWS V13.01,2013-12-07 18:23:00,
2013-12-07 12:29:00,24.3,18.4,30.58,NE,46,0.0,0.0,78,0.00,,---,0.00,VWS V13.01,2013-12-07 18:29:00,
2013-12-07 12:34:00,24.5,18.6,30.58,NE,46,0.0,0.0,78,0.00,,---,0.00,VWS V13.01,2013-12-07 18:34:00,
2013-12-07 12:39:00,24.6,18.7,30.58,NE,46,0.0,0.0,78,0.00,,---,0.00,VWS V13.01,2013-12-07 18:39:00,
2013-12-07 12:44:00,24.5,18.9,30.57,NE,46,0.0,0.0,79,0.00,,---,0.00,VWS V13.01,2013-12-07 18:44:00,
2013-12-07 12:49:00,24.5,18.9,30.57,NE,46,0.0,0.0,79,0.00,,---,0.00,VWS V13.01,2013-12-07 18:49:00,
2013-12-07 12:54:00,24.6,19.0,30.56,NE,45,0.0,0.0,79,0.00,,---,0.00,VWS V13.01,2013-12-07 18:54:00,
2013-12-07 12:59:00,24.7,19.1,30.56,NE,46,0.0,0.0,79,0.00,,---,0.00,VWS V13.01,2013-12-07 18:59:00,
2013-12-07 13:04:00,25.0,19.4,30.56,NE,45,0.0,0.0,79,0.00,,---,0.00,VWS V13.01,2013-12-07 19:04:00,
2013-12-07 13:10:00,25.3,19.7,30.55,NE,46,0.0,0.0,79,0.00,,---,0.00,VWS V13.01,2013-12-07 19:10:00,
2013-12-07 13:15:00,25.4,19.8,30.55,NE,45,0.0,0.0,79,0.00,,---,0.00,VWS V13.01,2013-12-07 19:15:00,
2013-12-07 13:20:00,25.6,20.0,30.54,NE,46,0.0,0.0,79,0.00,,---,0.00,VWS V13.01,2013-12-07 19:20:00,
2013-12-07 13:25:00,26.0,20.7,30.54,NE,46,0.0,0.0,80,0.00,,---,0.00,VWS V13.01,2013-12-07 19:25:00,
2013-12-07 13:30:00,26.3,21.0,30.54,NE,46,0.0,0.0,80,0.00,,---,0.00,VWS V13.01,2013-12-07 19:30:00,
2013-12-07 13:35:00,26.5,20.9,30.54,NE,46,0.0,0.0,79,0.00,,---,0.00,VWS V13.01,2013-12-07 19:35:00,
2013-12-07 13:40:00,26.6,21.0,30.53,NE,46,0.0,0.0,79,0.00,,---,0.00,VWS V13.01,2013-12-07 19:40:00,
2013-12-07 13:45:00,26.8,21.2,30.52,NE,46,0.0,0.0,79,0.00,,---,0.00,VWS V13.01,2013-12-07 19:45:00,
2013-12-07 13:50:00,27.0,21.7,30.52,NE,46,0.0,0.0,80,0.00,,---,0.00,VWS V13.01,2013-12-07 19:50:00,
2013-12-07 13:55:00,27.0,21.4,30.51,NE,46,0.0,0.0,79,0.00,,---,0.00,VWS V13.01,2013-12-07 19:55:00,
2013-12-07 14:00:00,27.0,21.4,30.51,NE,45,0.0,0.0,79,0.00,,---,0.00,VWS V13.01,2013-12-07 20:00:00,
2013-12-07 14:06:00,27.1,21.8,30.51,NE,45,0.0,0.0,80,0.00,,---,0.00,VWS V13.01,2013-12-07 20:06:00,
2013-12-07 14:11:00,27.0,21.4,30.50,NE,46,0.0,0.0,79,0.00,,---,0.00,VWS V13.01,2013-12-07 20:11:00,
2013-12-07 14:16:00,27.1,21.8,30.50,NE,45,0.0,0.0,80,0.00,,---,0.00,VWS V13.01,2013-12-07 20:16:00,
2013-12-07 14:21:00,27.1,21.8,30.50,NE,46,0.0,0.0,80,0.00,,---,0.00,VWS V13.01,2013-12-07 20:21:00,
2013-12-07 14:26:00,27.3,22.0,30.50,NE,45,0.0,0.0,80,0.00,,---,0.00,VWS V13.01,2013-12-07 20:26:00,
2013-12-07 14:31:00,27.3,22.0,30.49,NE,46,0.0,0.0,80,0.00,,---,0.00,VWS V13.01,2013-12-07 20:31:00,
2013-12-07 14:36:00,27.3,22.0,30.48,NE,46,0.0,0.0,80,0.00,,---,0.00,VWS V13.01,2013-12-07 20:36:00,
2013-12-07 14:41:00,27.1,21.8,30.47,NE,46,0.0,0.0,80,0.00,,---,0.00,VWS V13.01,2013-12-07 20:41:00,
2013-12-07 14:46:00,27.0,21.7,30.47,NE,46,0.0,0.0,80,0.00,,---,0.00,VWS V13.01,2013-12-07 20:46:00,
2013-12-07 14:52:00,27.0,21.7,30.48,NE,46,0.0,0.0,80,0.00,,---,0.00,VWS V13.01,2013-12-07 20:52:00,
2013-12-07 14:57:00,27.1,21.8,30.47,NE,46,0.0,0.0,80,0.00,,---,0.00,VWS V13.01,2013-12-07 20:57:00,
2013-12-07 15:02:00,27.0,21.7,30.48,NE,46,0.0,0.0,80,0.00,,---,0.00,VWS V13.01,2013-12-07 21:02:00,
2013-12-07 15:07:00,26.9,21.6,30.48,NE,46,0.0,0.0,80,0.00,,---,0.00,VWS V13.01,2013-12-07 21:07:00,
2013-12-07 15:12:00,26.7,21.1,30.49,NE,46,0.0,0.0,79,0.00,,---,0.00,VWS V13.01,2013-12-07 21:12:00,
2013-12-07 15:17:00,26.7,21.4,30.49,NE,46,0.0,0.0,80,0.00,,---,0.00,VWS V13.01,2013-12-07 21:17:00,
2013-12-07 15:22:00,26.6,21.0,30.48,NE,46,0.0,0.0,79,0.00,,---,0.00,VWS V13.01,2013-12-07 21:22:00,
2013-12-07 15:27:00,26.5,21.2,30.48,NE,46,0.0,0.0,80,0.00,,---,0.00,VWS V13.01,2013-12-07 21:27:00,
2013-12-07 15:33:00,26.5,21.2,30.49,NE,45,0.0,0.0,80,0.00,,---,0.00,VWS V13.01,2013-12-07 21:33:00,
2013-12-07 15:38:00,26.3,21.0,30.49,NE,46,0.0,0.0,80,0.00,,---,0.00,VWS V13.01,2013-12-07 21:38:00,
2013-12-07 15:43:00,26.2,21.2,30.49,NE,45,0.0,0.0,81,0.00,,---,0.00,VWS V13.01,2013-12-07 21:43:00,
2013-12-07 15:48:00,26.2,21.2,30.50,NE,46,0.0,0.0,81,0.00,,---,0.00,VWS V13.01,2013-12-07 21:48:00,
2013-12-07 15:53:00,26.1,21.1,30.50,NE,46,0.0,0.0,81,0.00,,---,0.00,VWS V13.01,2013-12-07 21:53:00,
2013-12-07 15:58:00,26.1,21.4,30.50,NE,46,0.0,0.0,82,0.00,,---,0.00,VWS V13.01,2013-12-07 21:58:00,
2013-12-07 16:03:00,26.0,21.3,30.49,NE,46,0.0,0.0,82,0.00,,---,0.00,VWS V13.01,2013-12-07 22:03:00,
2013-12-07 16:08:00,26.0,21.3,30.49,NE,45,0.0,0.0,82,0.00,,---,0.00,VWS V13.01,2013-12-07 22:08:00,
2013-12-07 16:13:00,25.9,21.2,30.49,NE,46,0.0,0.0,82,0.00,,---,0.00,VWS V13.01,2013-12-07 22:13:00,
2013-12-07 16:18:00,25.7,21.0,30.49,NE,45,0.0,0.0,82,0.00,,---,0.00,VWS V13.01,2013-12-07 22:18:00,
2013-12-07 16:24:00,25.5,20.8,30.49,NE,46,0.0,0.0,82,0.00,,---,0.00,VWS V13.01,2013-12-07 22:24:00,
2013-12-07 16:29:00,25.3,20.6,30.50,NE,45,0.0,0.0,82,0.00,,---,0.00,VWS V13.01,2013-12-07 22:29:00,
2013-12-07 16:34:00,25.1,20.4,30.50,NE,45,0.0,0.0,82,0.00,,---,0.00,VWS V13.01,2013-12-07 22:34:00,
2013-12-07 16:39:00,25.0,20.3,30.49,NE,45,0.0,0.0,82,0.00,,---,0.00,VWS V13.01,2013-12-07 22:39:00,
2013-12-07 16:44:00,24.8,20.1,30.48,NE,45,0.0,0.0,82,0.00,,---,0.00,VWS V13.01,2013-12-07 22:44:00,
2013-12-07 16:49:00,24.7,20.0,30.48,NE,46,0.0,0.0,82,0.00,,---,0.00,VWS V13.01,2013-12-07 22:49:00,
2013-12-07 16:54:00,24.6,20.2,30.49,NE,46,0.0,0.0,83,0.00,,---,0.00,VWS V13.01,2013-12-07 22:54:00,
2013-12-07 16:59:00,24.5,20.1,30.49,NE,45,0.0,0.0,83,0.00,,---,0.00,VWS V13.01,2013-12-07 22:59:00,
2013-12-07 17:05:00,24.5,20.1,30.49,NE,45,0.0,0.0,83,0.00,,---,0.00,VWS V13.01,2013-12-07 23:05:00,
2013-12-07 17:10:00,24.5,20.1,30.48,NE,46,0.0,0.0,83,0.00,,---,0.00,VWS V13.01,2013-12-07 23:10:00,
2013-12-07 17:15:00,24.5,20.4,30.48,NE,46,0.0,0.0,84,0.00,,---,0.00,VWS V13.01,2013-12-07 23:15:00,
2013-12-07 17:20:00,24.5,20.4,30.47,NE,46,0.0,0.0,84,0.00,,---,0.00,VWS V13.01,2013-12-07 23:20:00,
2013-12-07 17:25:00,24.5,20.4,30.47,NE,46,0.0,0.0,84,0.00,,---,0.00,VWS V13.01,2013-12-07 23:25:00,
2013-12-07 17:30:00,24.4,20.3,30.47,NE,46,0.0,0.0,84,0.00,,---,0.00,VWS V13.01,2013-12-07 23:30:00,
2013-12-07 17:35:00,24.3,20.2,30.48,NE,46,0.0,0.0,84,0.00,,---,0.00,VWS V13.01,2013-12-07 23:35:00,
2013-12-07 17:40:00,24.2,20.1,30.47,NE,46,0.0,0.0,84,0.00,,---,0.00,VWS V13.01,2013-12-07 23:40:00,
2013-12-07 17:46:00,24.0,19.9,30.48,NE,46,0.0,0.0,84,0.00,,---,0.00,VWS V13.01,2013-12-07 23:46:00,
2013-12-07 17:51:00,24.0,20.1,30.48,NE,46,0.0,0.0,85,0.00,,---,0.00,VWS V13.01,2013-12-07 23:51:00,
2013-12-07 17:56:00,24.0,19.9,30.48,NE,46,0.0,0.0,84,0.00,,---,0.00,VWS V13.01,2013-12-07 23:56:00,
2013-12-07 18:01:00,23.9,19.8,30.47,NE,46,0.0,0.0,84,0.00,,---,0.00,VWS V13.01,2013-12-08 00:01:00,
2013-12-07 18:06:00,23.9,20.1,30.47,NE,45,0.0,0.0,85,0.00,,---,0.00,VWS V13.01,2013-12-08 00:06:00,
2013-12-07 18:11:00,23.8,20.0,30.47,NE,46,0.0,0.0,85,0.00,,---,0.00,VWS V13.01,2013-12-08 00:11:00,
2013-12-07 18:16:00,23.7,21.7,30.48,NE,46,0.0,0.0,92,0.00,,---,0.00,VWS V13.01,2013-12-08 00:16:00,
2013-12-07 18:21:00,23.7,19.9,30.48,NE,46,0.0,0.0,85,0.00,,---,0.00,VWS V13.01,2013-12-08 00:21:00,
2013-12-07 18:26:00,23.7,19.9,30.48,NE,46,0.0,0.0,85,0.00,,---,0.00,VWS V13.01,2013-12-08 00:26:00,
2013-12-07 18:31:00,23.7,19.9,30.48,NE,46,0.0,0.0,85,0.00,,---,0.00,VWS V13.01,2013-12-08 00:31:00,
2013-12-07 18:37:00,23.7,20.1,30.48,NE,46,0.0,0.0,86,0.00,,---,0.00,VWS V13.01,2013-12-08 00:37:00,
2013-12-07 18:42:00,23.8,20.2,30.48,NE,46,0.0,0.0,86,0.00,,---,0.00,VWS V13.01,2013-12-08 00:42:00,
2013-12-07 18:47:00,23.8,20.2,30.48,NE,46,0.0,0.0,86,0.00,,---,0.00,VWS V13.01,2013-12-08 00:47:00,
2013-12-07 18:52:00,23.8,20.2,30.47,NE,46,0.0,0.0,86,0.00,,---,0.00,VWS V13.01,2013-12-08 00:52:00,
2013-12-07 18:57:00,23.8,20.2,30.47,NE,46,0.0,0.0,86,0.00,,---,0.00,VWS V13.01,2013-12-08 00:57:00,
2013-12-07 19:02:00,23.6,20.0,30.46,NE,46,0.0,0.0,86,0.00,,---,0.00,VWS V13.01,2013-12-08 01:02:00,
2013-12-07 19:07:00,23.5,19.9,30.47,NE,46,0.0,0.0,86,0.00,,---,0.00,VWS V13.01,2013-12-08 01:07:00,
2013-12-07 19:12:00,23.4,19.8,30.46,NE,46,0.0,0.0,86,0.00,,---,0.00,VWS V13.01,2013-12-08 01:12:00,
2013-12-07 19:17:00,23.4,19.8,30.47,NE,46,0.0,0.0,86,0.00,,---,0.00,VWS V13.01,2013-12-08 01:17:00,
2013-12-07 19:22:00,23.3,19.7,30.47,NE,46,0.0,0.0,86,0.00,,---,0.00,VWS V13.01,2013-12-08 01:22:00,
2013-12-07 19:28:00,23.3,19.7,30.47,NE,46,0.0,0.0,86,0.00,,---,0.00,VWS V13.01,2013-12-08 01:28:00,
2013-12-07 19:32:00,23.3,19.7,30.47,NE,45,0.0,0.0,86,0.00,,---,0.00,VWS V13.01,2013-12-08 01:32:00,
2013-12-07 19:37:00,23.3,19.7,30.47,NE,46,0.0,0.0,86,0.00,,---,0.00,VWS V13.01,2013-12-08 01:37:00,
2013-12-07 19:43:00,23.3,19.7,30.47,NE,46,0.0,0.0,86,0.00,,---,0.00,VWS V13.01,2013-12-08 01:43:00,
2013-12-07 19:48:00,23.3,19.7,30.48,NE,46,0.0,0.0,86,0.00,,---,0.00,VWS V13.01,2013-12-08 01:48:00,
2013-12-07 19:53:00,23.3,19.7,30.48,NE,46,0.0,0.0,86,0.00,,---,0.00,VWS V13.01,2013-12-08 01:53:00,
2013-12-07 19:58:00,23.4,19.8,30.47,NE,46,0.0,0.0,86,0.00,,---,0.00,VWS V13.01,2013-12-08 01:58:00,
2013-12-07 20:03:00,23.4,19.8,30.47,NE,46,0.0,0.0,86,0.00,,---,0.00,VWS V13.01,2013-12-08 02:03:00,
2013-12-07 20:08:00,23.3,19.7,30.47,NE,46,0.0,0.0,86,0.00,,---,0.00,VWS V13.01,2013-12-08 02:08:00,
2013-12-07 20:13:00,23.3,19.7,30.46,NE,46,0.0,0.0,86,0.00,,---,0.00,VWS V13.01,2013-12-08 02:13:00,
2013-12-07 20:18:00,23.4,19.8,30.47,NE,46,0.0,0.0,86,0.00,,---,0.00,VWS V13.01,2013-12-08 02:18:00,
2013-12-07 20:24:00,23.3,19.7,30.46,NE,46,0.0,0.0,86,0.00,,---,0.00,VWS V13.01,2013-12-08 02:24:00,
2013-12-07 20:29:00,23.4,19.8,30.46,NE,46,0.0,0.0,86,0.00,,---,0.00,VWS V13.01,2013-12-08 02:29:00,
2013-12-07 20:34:00,23.4,19.8,30.46,NE,46,0.0,0.0,86,0.00,,---,0.00,VWS V13.01,2013-12-08 02:34:00,
2013-12-07 20:39:00,23.4,19.8,30.45,NE,46,0.0,0.0,86,0.00,,---,0.00,VWS V13.01,2013-12-08 02:39:00,
2013-12-07 20:44:00,23.4,19.8,30.44,NE,46,0.0,0.0,86,0.00,,---,0.00,VWS V13.01,2013-12-08 02:44:00,
2013-12-07 20:49:00,23.4,19.8,30.44,NE,46,0.0,0.0,86,0.00,,---,0.00,VWS V13.01,2013-12-08 02:49:00,
2013-12-07 20:54:00,23.3,19.7,30.44,NE,46,0.0,0.0,86,0.00,,---,0.00,VWS V13.01,2013-12-08 02:54:00,
2013-12-07 20:59:00,23.3,19.7,30.45,NE,46,0.0,0.0,86,0.00,,---,0.00,VWS V13.01,2013-12-08 02:59:00,
2013-12-07 21:04:00,23.2,19.6,30.45,NE,46,0.0,0.0,86,0.00,,---,0.00,VWS V13.01,2013-12-08 03:04:00,
2013-12-07 21:09:00,23.1,19.3,30.44,NE,46,0.0,0.0,85,0.00,,---,0.00,VWS V13.01,2013-12-08 03:09:00,
2013-12-07 21:14:00,23.1,19.3,30.45,NE,46,0.0,0.0,85,0.00,,---,0.00,VWS V13.01,2013-12-08 03:14:00,
2013-12-07 21:20:00,23.1,19.3,30.44,NE,45,0.0,0.0,85,0.00,,---,0.00,VWS V13.01,2013-12-08 03:20:00,
2013-12-07 21:25:00,23.0,19.2,30.44,NE,46,0.0,0.0,85,0.00,,---,0.00,VWS V13.01,2013-12-08 03:25:00,
2013-12-07 21:30:00,23.0,18.9,30.44,NE,46,0.0,0.0,84,0.00,,---,0.00,VWS V13.01,2013-12-08 03:30:00,
2013-12-07 21:35:00,23.0,18.9,30.43,NE,46,0.0,0.0,84,0.00,,---,0.00,VWS V13.01,2013-12-08 03:35:00,
2013-12-07 21:40:00,23.0,18.9,30.44,NE,46,0.0,0.0,84,0.00,,---,0.00,VWS V13.01,2013-12-08 03:40:00,
2013-12-07 21:45:00,23.0,18.9,30.43,NE,45,0.0,0.0,84,0.00,,---,0.00,VWS V13.01,2013-12-08 03:45:00,
2013-12-07 21:50:00,22.9,18.8,30.43,NE,45,0.0,0.0,84,0.00,,---,0.00,VWS V13.01,2013-12-08 03:50:00,
2013-12-07 21:55:00,22.9,18.8,30.42,NE,46,0.0,0.0,84,0.00,,---,0.00,VWS V13.01,2013-12-08 03:55:00,
2013-12-07 22:00:00,22.9,18.8,30.40,NE,46,0.0,0.0,84,0.00,,---,0.00,VWS V13.01,2013-12-08 04:00:00,
2013-12-07 22:05:00,22.8,18.7,30.41,NE,45,0.0,0.0,84,0.00,,---,0.00,VWS V13.01,2013-12-08 04:05:00,
2013-12-07 22:10:00,22.8,18.4,30.41,NE,46,0.0,0.0,83,0.00,,---,0.00,VWS V13.01,2013-12-08 04:10:00,
2013-12-07 22:15:00,22.8,18.7,30.41,NE,46,0.0,0.0,84,0.00,,---,0.00,VWS V13.01,2013-12-08 04:15:00,
2013-12-07 22:21:00,22.8,18.7,30.40,NE,46,0.0,0.0,84,0.00,,---,0.00,VWS V13.01,2013-12-08 04:21:00,
2013-12-07 22:26:00,22.8,18.7,30.40,ENE,77,0.0,0.0,84,0.00,,---,0.00,VWS V13.01,2013-12-08 04:26:00,
2013-12-07 22:31:00,22.8,18.7,30.40,ENE,77,0.0,0.0,84,0.00,,---,0.00,VWS V13.01,2013-12-08 04:31:00,
2013-12-07 22:36:00,22.8,18.4,30.41,ENE,77,0.0,0.0,83,0.00,,---,0.00,VWS V13.01,2013-12-08 04:36:00,
2013-12-07 22:41:00,22.8,18.7,30.41,NE,46,0.0,0.0,84,0.00,,---,0.00,VWS V13.01,2013-12-08 04:41:00,
2013-12-07 22:46:00,22.9,18.8,30.41,ENE,76,0.0,0.0,84,0.00,,---,0.00,VWS V13.01,2013-12-08 04:46:00,
2013-12-07 22:51:00,22.9,18.8,30.41,ENE,67,0.0,0.0,84,0.00,,---,0.00,VWS V13.01,2013-12-08 04:51:00,
2013-12-07 22:56:00,22.9,18.8,30.41,ENE,60,0.0,0.0,84,0.00,,---,0.00,VWS V13.01,2013-12-08 04:56:00,
2013-12-07 23:01:00,22.9,18.8,30.40,ENE,77,0.0,0.0,84,0.00,,---,0.00,VWS V13.01,2013-12-08 05:01:00,
2013-12-07 23:02:00,22.9,18.8,30.40,ENE,78,0.0,0.0,84,0.00,,---,0.00,VWS V13.01,2013-12-08 05:02:00,
2013-12-07 23:07:00,22.9,18.8,30.40,ENE,71,0.0,0.0,84,0.00,,---,0.00,VWS V13.01,2013-12-08 05:07:00,
2013-12-07 23:13:00,22.9,18.8,30.40,ENE,77,0.0,0.0,84,0.00,,---,0.00,VWS V13.01,2013-12-08 05:13:00,
2013-12-07 23:18:00,23.0,19.2,30.39,ENE,77,0.0,0.0,85,0.00,,---,0.00,VWS V13.01,2013-12-08 05:18:00,
2013-12-07 23:23:00,23.0,19.2,30.39,ENE,76,0.0,0.0,85,0.00,,---,0.00,VWS V13.01,2013-12-08 05:23:00,
2013-12-07 23:28:00,23.1,19.3,30.38,ENE,77,0.0,0.0,85,0.00,,---,0.00,VWS V13.01,2013-12-08 05:28:00,
2013-12-07 23:33:00,23.1,19.3,30.37,ENE,78,0.0,0.0,85,0.00,,---,0.00,VWS V13.01,2013-12-08 05:33:00,
2013-12-07 23:38:00,23.1,19.3,30.36,ENE,78,0.0,0.0,85,0.00,,---,0.00,VWS V13.01,2013-12-08 05:38:00,
2013-12-07 23:43:00,23.0,19.2,30.37,ENE,78,0.0,0.0,85,0.00,,---,0.00,VWS V13.01,2013-12-08 05:43:00,
2013-12-07 23:48:00,23.0,19.2,30.38,ENE,78,0.0,0.0,85,0.00,,---,0.00,VWS V13.01,2013-12-08 05:48:00,
2013-12-07 23:53:00,23.0,19.2,30.38,ENE,78,0.0,0.0,85,0.00,,---,0.00,VWS V13.01,2013-12-08 05:53:00,
2013-12-07 23:58:00,23.1,19.3,30.37,ENE,77,0.0,0.0,85,0.00,,---,0.00,VWS V13.01,2013-12-08 05:58:00,